Claytonville, Illinois
Current Conditions -  °F | °C
As of 8:15 AM on Wednesday 28 Jan 2015 (Local Time) from KTIP Reporting Station
Clear Clear  
Wind Chill: 16°   Ceiling: Unl
Heat Index: 25°   Visibility: 10mi
Dew Point: 20°   Wind: 9mph
Humidity: 79%   Direction: 160°SSE
Pressure: 30.29"   Gusts: NA
Location:  40.57°N, 87.82°W
Report Text: KTIP 281415Z AUTO 16008KT 10SM CLR M04/M07 A3029 RMK AO2 T10371068
Loading
Personal Weather Stations






























Interactive Weather Map New forecast layout! Learn more

10-Day Weather Forecast

Advertisements
Track Severe Weather on mobile